createdAt,value
2022-08-21T00:00:30.087Z,7.35
2022-08-21T00:03:11.013Z,3.20
2022-08-21T00:05:43.387Z,3.60
2022-08-21T00:08:10.534Z,4.95
2022-08-21T00:10:37.725Z,4.85
2022-08-21T00:13:06.220Z,4.13
2022-08-21T00:15:35.774Z,4.97
2022-08-21T00:18:03.760Z,5.15
2022-08-21T00:20:31.814Z,3.92
2022-08-21T00:22:59.262Z,6.22
2022-08-21T00:25:27.572Z,5.20
2022-08-21T00:27:55.872Z,4.13
2022-08-21T00:30:25.154Z,4.43
2022-08-21T00:32:53.704Z,4.00
2022-08-21T00:35:33.814Z,3.65
2022-08-21T00:38:01.040Z,4.05
2022-08-21T00:40:40.669Z,6.57
2022-08-21T00:43:10.928Z,4.57
2022-08-21T00:45:38.826Z,4.03
2022-08-21T00:48:06.779Z,4.85
2022-08-21T00:50:37.806Z,3.40
2022-08-21T00:53:07.622Z,3.78
2022-08-21T00:55:36.743Z,4.15
2022-08-21T00:58:06.840Z,4.45
2022-08-21T01:00:39.580Z,3.72
2022-08-21T01:03:10.826Z,6.65
2022-08-21T01:05:38.910Z,4.30
2022-08-21T01:08:08.353Z,4.93
2022-08-21T01:10:37.942Z,5.25
2022-08-21T01:13:07.841Z,4.35
2022-08-21T01:15:39.703Z,4.20
2022-08-21T01:18:09.718Z,3.97
2022-08-21T01:20:38.914Z,8.60
2022-08-21T01:23:07.021Z,6.97
2022-08-21T01:25:35.463Z,5.50
2022-08-21T01:28:12.885Z,5.78
2022-08-21T01:30:43.062Z,4.80
2022-08-21T01:33:10.366Z,6.90
2022-08-21T01:35:37.744Z,5.95
2022-08-21T01:38:04.880Z,4.78
2022-08-21T01:40:31.893Z,5.65
2022-08-21T01:42:59.558Z,4.95
2022-08-21T01:45:26.978Z,5.53
2022-08-21T01:47:53.840Z,6.88
2022-08-21T01:50:22.259Z,5.05
2022-08-21T01:52:50.595Z,6.78
2022-08-21T01:55:18.946Z,8.02
2022-08-21T01:57:46.656Z,6.80
2022-08-21T02:00:16.163Z,5.13
2022-08-21T02:02:43.733Z,6.03
2022-08-21T02:05:13.003Z,4.07
2022-08-21T02:07:43.010Z,5.53
2022-08-21T02:10:12.984Z,4.80
2022-08-21T02:12:40.018Z,6.13
2022-08-21T02:15:08.557Z,4.38
2022-08-21T02:17:47.831Z,5.82
2022-08-21T02:20:23.669Z,5.13
2022-08-21T02:22:50.903Z,4.95
2022-08-21T02:25:20.494Z,4.40
2022-08-21T02:27:48.807Z,5.00
2022-08-21T02:30:24.010Z,5.43
2022-08-21T02:32:51.545Z,5.80
2022-08-21T02:35:19.438Z,6.05
2022-08-21T02:37:50.037Z,4.40
2022-08-21T02:40:19.084Z,5.97
2022-08-21T02:42:46.572Z,4.18
2022-08-21T02:45:15.030Z,6.28
2022-08-21T02:47:55.417Z,4.55
2022-08-21T02:50:52.527Z,3.72
2022-08-21T02:53:20.812Z,4.78
2022-08-21T02:55:49.966Z,5.05
2022-08-21T02:58:21.748Z,5.25
2022-08-21T03:00:48.974Z,5.13
2022-08-21T03:03:15.958Z,3.83
2022-08-21T03:05:44.823Z,4.68
2022-08-21T03:08:14.223Z,4.75
2022-08-21T03:10:45.566Z,4.72
2022-08-21T03:13:13.323Z,2.35
2022-08-21T03:15:41.145Z,3.10
2022-08-21T03:18:09.592Z,3.00
2022-08-21T03:20:37.779Z,16.15
2022-08-21T03:23:12.545Z,4.15
2022-08-21T03:25:42.121Z,2.80
2022-08-21T03:28:13.869Z,2.70
2022-08-21T03:30:43.049Z,2.78
2022-08-21T03:33:12.419Z,2.25
2022-08-21T03:35:47.953Z,2.90
2022-08-21T03:38:15.576Z,2.33
2022-08-21T03:40:44.162Z,3.13
2022-08-21T03:43:11.865Z,2.13
2022-08-21T03:45:40.199Z,2.53
2022-08-21T03:48:09.281Z,3.05
2022-08-21T03:50:40.803Z,4.30
2022-08-21T03:53:17.003Z,3.08
2022-08-21T03:55:50.504Z,5.97
2022-08-21T03:58:20.254Z,2.00
2022-08-21T04:00:49.699Z,3.67
2022-08-21T04:03:17.831Z,1.83
2022-08-21T04:05:46.915Z,1.73
2022-08-21T04:08:16.107Z,2.83
2022-08-21T04:10:44.749Z,2.47
2022-08-21T04:13:12.413Z,2.38
2022-08-21T04:15:39.942Z,2.83
2022-08-21T04:18:06.947Z,2.10
2022-08-21T04:20:34.353Z,3.13
2022-08-21T04:23:02.421Z,1.90
2022-08-21T04:25:29.758Z,1.88
2022-08-21T04:27:57.019Z,1.77
2022-08-21T04:30:28.126Z,1.90
2022-08-21T04:32:58.813Z,1.73
2022-08-21T04:35:28.530Z,1.67
2022-08-21T04:37:56.045Z,2.85
2022-08-21T04:40:26.361Z,2.38
2022-08-21T04:42:57.650Z,3.58
2022-08-21T04:45:31.620Z,2.33
2022-08-21T04:48:01.594Z,2.10
2022-08-21T04:50:42.430Z,3.15
2022-08-21T04:53:13.654Z,2.25
2022-08-21T04:55:43.004Z,1.42
2022-08-21T04:58:14.047Z,1.95
2022-08-21T05:00:41.764Z,1.95
2022-08-21T05:03:11.265Z,2.05
2022-08-21T05:05:39.254Z,1.42
2022-08-21T05:08:09.250Z,1.45
2022-08-21T05:10:36.899Z,1.63
2022-08-21T05:13:06.420Z,1.38
2022-08-21T05:15:33.572Z,2.72
2022-08-21T05:18:01.169Z,1.48
2022-08-21T05:20:29.655Z,1.98
2022-08-21T05:22:57.354Z,1.42
2022-08-21T05:25:24.661Z,1.35
2022-08-21T05:27:52.548Z,2.13
2022-08-21T05:30:21.247Z,1.52
2022-08-21T05:32:48.848Z,1.50
2022-08-21T05:35:16.422Z,2.38
2022-08-21T05:37:43.448Z,1.98
2022-08-21T05:40:22.227Z,2.53
2022-08-21T05:42:54.665Z,1.50
2022-08-21T05:45:41.718Z,2.42
2022-08-21T05:48:20.767Z,6.13
2022-08-21T05:50:51.589Z,4.47
2022-08-21T05:53:20.925Z,3.60
2022-08-21T05:55:48.944Z,2.97
2022-08-21T05:58:18.468Z,2.97
2022-08-21T06:00:48.295Z,3.42
2022-08-21T06:03:24.585Z,2.78
2022-08-21T06:05:53.822Z,3.08
2022-08-21T06:08:21.650Z,4.07
2022-08-21T06:10:51.277Z,4.15
2022-08-21T06:13:20.208Z,3.28
2022-08-21T06:15:47.295Z,3.50
2022-08-21T06:18:14.769Z,3.30
2022-08-21T06:20:42.439Z,3.75
2022-08-21T06:23:09.561Z,3.95
2022-08-21T06:25:36.811Z,5.60
2022-08-21T06:28:09.497Z,5.53
2022-08-21T06:30:38.484Z,3.10
2022-08-21T06:33:07.266Z,4.00
2022-08-21T06:35:35.316Z,3.43
2022-08-21T06:38:02.657Z,2.57
2022-08-21T06:40:30.916Z,4.15
2022-08-21T06:43:15.200Z,2.27
2022-08-21T06:45:43.453Z,4.73
2022-08-21T06:48:11.982Z,3.63
2022-08-21T06:50:42.064Z,3.90
2022-08-21T06:53:13.171Z,4.20
2022-08-21T06:55:41.423Z,5.63
2022-08-21T06:58:09.023Z,4.50
2022-08-21T07:00:40.078Z,2.43
2022-08-21T07:03:07.211Z,4.60
2022-08-21T07:05:34.323Z,3.10
2022-08-21T07:08:01.639Z,3.93
2022-08-21T07:10:29.818Z,3.47
2022-08-21T07:13:01.095Z,2.58
2022-08-21T07:15:31.001Z,4.90
2022-08-21T07:18:02.101Z,3.33
2022-08-21T07:20:30.673Z,4.13
2022-08-21T07:23:01.829Z,5.00
2022-08-21T07:25:29.296Z,4.88
2022-08-21T07:27:56.787Z,3.85
2022-08-21T07:30:25.033Z,5.80
2022-08-21T07:32:53.027Z,5.03
2022-08-21T07:35:21.169Z,4.90
2022-08-21T07:37:48.514Z,3.67
2022-08-21T07:40:16.636Z,2.77
2022-08-21T07:42:46.206Z,3.87
2022-08-21T07:45:14.176Z,5.07
2022-08-21T07:47:42.731Z,2.70
2022-08-21T07:50:12.857Z,8.87
2022-08-21T07:52:41.549Z,5.23
2022-08-21T07:55:14.808Z,3.47
2022-08-21T07:57:42.348Z,6.23
2022-08-21T08:00:13.657Z,5.47
2022-08-21T08:02:41.620Z,2.40
2022-08-21T08:05:12.222Z,3.77
2022-08-21T08:07:39.969Z,3.47
2022-08-21T08:10:09.525Z,4.53
2022-08-21T08:12:38.153Z,3.90
2022-08-21T08:15:07.325Z,5.93
2022-08-21T08:17:34.434Z,3.53
2022-08-21T08:20:02.053Z,5.03
2022-08-21T08:22:29.528Z,6.50
2022-08-21T08:24:57.363Z,3.20
2022-08-21T08:27:25.010Z,5.05
2022-08-21T08:29:52.473Z,4.33
2022-08-21T08:32:21.091Z,3.77
2022-08-21T08:34:49.795Z,11.52
2022-08-21T08:37:17.391Z,4.57
2022-08-21T08:39:45.348Z,7.07
2022-08-21T08:42:33.968Z,3.83
2022-08-21T08:45:09.155Z,5.18
2022-08-21T08:47:40.805Z,3.95
2022-08-21T08:50:08.405Z,5.72
2022-08-21T08:52:46.501Z,2.47
2022-08-21T08:55:18.424Z,2.72
2022-08-21T08:57:50.099Z,3.20
2022-08-21T09:00:21.714Z,3.60
2022-08-21T09:02:52.720Z,3.27
2022-08-21T09:05:24.903Z,4.27
2022-08-21T09:08:11.454Z,3.55
2022-08-21T09:11:03.393Z,3.55
2022-08-21T09:13:38.726Z,2.28
2022-08-21T09:16:25.233Z,3.07
2022-08-21T09:19:24.965Z,4.40
2022-08-21T09:22:04.405Z,3.60
2022-08-21T09:24:58.176Z,3.17
2022-08-21T09:27:25.717Z,3.27
2022-08-21T09:29:55.255Z,3.95
2022-08-21T09:32:36.915Z,4.30
2022-08-21T09:35:11.400Z,5.07
2022-08-21T09:37:54.895Z,3.55
2022-08-21T09:40:44.363Z,4.93
2022-08-21T09:43:14.915Z,3.70
2022-08-21T09:45:43.837Z,5.28
2022-08-21T09:48:19.747Z,2.38
2022-08-21T09:50:48.908Z,4.95
2022-08-21T09:53:22.373Z,3.55
2022-08-21T09:56:16.205Z,4.82
2022-08-21T09:58:47.095Z,5.07
2022-08-21T10:01:24.430Z,2.42
2022-08-21T10:04:10.963Z,7.97
2022-08-21T10:06:38.665Z,4.13
2022-08-21T10:09:19.955Z,4.90
2022-08-21T10:12:11.766Z,4.18
2022-08-21T10:14:52.717Z,3.53
2022-08-21T10:17:34.602Z,3.38
2022-08-21T10:20:12.708Z,4.07
2022-08-21T10:22:58.888Z,3.10
2022-08-21T10:25:34.526Z,3.33
2022-08-21T10:28:26.959Z,3.70
2022-08-21T10:31:16.824Z,3.22
2022-08-21T10:34:07.314Z,1.90
2022-08-21T10:37:07.842Z,2.65
2022-08-21T10:39:52.839Z,2.33
2022-08-21T10:42:35.337Z,2.80
2022-08-21T10:45:33.797Z,2.58
2022-08-21T10:48:08.131Z,2.35
2022-08-21T10:50:47.401Z,3.60
2022-08-21T10:53:26.927Z,2.75
2022-08-21T10:56:02.451Z,4.43
2022-08-21T10:58:47.539Z,3.13
2022-08-21T11:01:28.906Z,2.35
2022-08-21T11:04:15.903Z,2.42
2022-08-21T11:06:49.914Z,5.57
2022-08-21T11:09:22.269Z,2.40
2022-08-21T11:12:11.605Z,2.10
2022-08-21T11:15:31.993Z,3.15
2022-08-21T11:18:22.290Z,4.40
2022-08-21T11:21:28.429Z,5.65
2022-08-21T11:24:05.767Z,2.88
2022-08-21T11:26:44.317Z,3.65
2022-08-21T11:29:18.360Z,3.42
2022-08-21T11:32:03.643Z,2.47
2022-08-21T11:34:48.928Z,4.70
2022-08-21T11:37:44.387Z,1.90
2022-08-21T11:40:17.698Z,2.83
2022-08-21T11:43:08.490Z,2.65
2022-08-21T11:45:54.839Z,3.40
2022-08-21T11:48:53.633Z,2.28
2022-08-21T11:51:38.476Z,3.80
2022-08-21T11:54:25.611Z,2.25
2022-08-21T11:57:01.886Z,3.53
2022-08-21T11:59:50.271Z,4.28
2022-08-21T12:02:24.720Z,4.18
2022-08-21T12:04:56.620Z,2.30
2022-08-21T12:07:45.597Z,2.25
2022-08-21T12:10:22.091Z,3.30
2022-08-21T12:12:49.964Z,2.97
2022-08-21T12:15:23.591Z,2.58
2022-08-21T12:18:05.631Z,1.95
2022-08-21T12:20:32.754Z,1.95
2022-08-21T12:23:18.072Z,1.95
2022-08-21T12:26:02.054Z,1.98
2022-08-21T12:28:31.900Z,1.63
2022-08-21T12:30:59.558Z,1.90
2022-08-21T12:33:40.471Z,2.58
2022-08-21T12:36:13.548Z,3.47
2022-08-21T12:38:47.367Z,4.35
2022-08-21T12:41:23.661Z,1.98
2022-08-21T12:44:06.523Z,2.20
2022-08-21T12:47:14.195Z,1.77
2022-08-21T12:49:55.792Z,1.30
2022-08-21T12:52:30.013Z,3.00
2022-08-21T12:54:57.192Z,1.77
2022-08-21T12:57:28.667Z,3.92
2022-08-21T13:00:09.682Z,1.35
2022-08-21T13:02:43.839Z,1.42
2022-08-21T13:05:16.118Z,1.50
2022-08-21T13:07:49.048Z,1.40
2022-08-21T13:10:33.971Z,1.63
2022-08-21T13:13:25.846Z,2.65
2022-08-21T13:16:01.464Z,1.95
2022-08-21T13:18:31.234Z,2.13
2022-08-21T13:21:08.013Z,1.02
2022-08-21T13:23:35.716Z,3.28
2022-08-21T13:26:18.238Z,3.22
2022-08-21T13:28:48.594Z,1.85
2022-08-21T13:31:23.398Z,1.08
2022-08-21T13:33:51.436Z,1.88
2022-08-21T13:36:27.717Z,1.42
2022-08-21T13:38:55.401Z,1.00
2022-08-21T13:41:25.133Z,2.55
2022-08-21T13:44:01.088Z,1.30
2022-08-21T13:46:32.336Z,2.70
2022-08-21T13:49:01.670Z,1.17
2022-08-21T13:51:29.032Z,2.53
2022-08-21T13:53:56.731Z,1.75
2022-08-21T13:56:26.629Z,2.63
2022-08-21T13:58:55.562Z,3.83
2022-08-21T14:01:28.815Z,1.30
2022-08-21T14:04:01.945Z,3.17
2022-08-21T14:06:35.503Z,2.75
2022-08-21T14:09:10.256Z,2.42
2022-08-21T14:11:38.247Z,1.65
2022-08-21T14:14:17.806Z,1.58
2022-08-21T14:16:53.913Z,2.60
2022-08-21T14:19:27.269Z,1.88
2022-08-21T14:21:55.951Z,3.42
2022-08-21T14:24:23.029Z,2.83
2022-08-21T14:27:12.548Z,1.90
2022-08-21T14:29:43.963Z,2.25
2022-08-21T14:32:21.476Z,3.25
2022-08-21T14:34:49.788Z,1.90
2022-08-21T14:37:16.969Z,2.92
2022-08-21T14:39:45.303Z,2.20
2022-08-21T14:42:14.048Z,1.60
2022-08-21T14:44:42.063Z,1.70
2022-08-21T14:47:10.627Z,1.92
2022-08-21T14:49:38.466Z,2.75
2022-08-21T14:52:05.729Z,1.05
2022-08-21T14:54:34.339Z,2.83
2022-08-21T14:57:09.720Z,2.00
2022-08-21T14:59:38.683Z,1.88
2022-08-21T15:02:08.317Z,1.88
2022-08-21T15:04:35.936Z,1.48
2022-08-21T15:07:05.290Z,1.35
2022-08-21T15:09:32.934Z,1.77
2022-08-21T15:12:02.850Z,1.83
2022-08-21T15:14:33.818Z,2.50
2022-08-21T15:17:02.262Z,1.70
2022-08-21T15:19:30.566Z,1.60
2022-08-21T15:21:58.401Z,3.17
2022-08-21T15:24:26.336Z,2.78
2022-08-21T15:26:55.998Z,2.22
2022-08-21T15:29:24.228Z,2.25
2022-08-21T15:32:03.703Z,2.50
2022-08-21T15:34:32.128Z,1.48
2022-08-21T15:36:59.972Z,2.55
2022-08-21T15:39:30.039Z,1.92
2022-08-21T15:42:02.691Z,3.10
2022-08-21T15:44:43.552Z,2.00
2022-08-21T15:47:15.257Z,3.78
2022-08-21T15:49:46.060Z,3.15
2022-08-21T15:52:15.107Z,2.10
2022-08-21T15:54:42.906Z,3.50
2022-08-21T15:57:17.742Z,1.55
2022-08-21T16:00:07.321Z,3.10
2022-08-21T16:02:40.688Z,4.18
2022-08-21T16:05:08.649Z,3.40
2022-08-21T16:07:35.821Z,4.10
2022-08-21T16:10:04.623Z,2.60
2022-08-21T16:12:35.957Z,3.20
2022-08-21T16:15:07.908Z,2.58
2022-08-21T16:17:41.248Z,3.78
2022-08-21T16:20:11.946Z,2.85
2022-08-21T16:22:42.190Z,3.80
2022-08-21T16:25:12.196Z,3.40
2022-08-21T16:27:42.124Z,2.67
2022-08-21T16:30:12.737Z,3.72
2022-08-21T16:32:39.876Z,3.90
2022-08-21T16:35:07.417Z,3.85
2022-08-21T16:37:34.827Z,2.97
2022-08-21T16:40:02.282Z,3.88
2022-08-21T16:42:29.526Z,3.67
2022-08-21T16:44:57.287Z,3.33
2022-08-21T16:47:26.519Z,4.13
2022-08-21T16:49:54.777Z,7.68
2022-08-21T16:52:21.931Z,2.15
2022-08-21T16:54:49.136Z,2.22
2022-08-21T16:57:16.594Z,2.03
2022-08-21T16:59:43.981Z,2.35
2022-08-21T17:02:51.174Z,2.15
2022-08-21T17:05:18.554Z,4.90
2022-08-21T17:07:46.053Z,5.13
2022-08-21T17:10:15.346Z,3.75
2022-08-21T17:12:44.901Z,5.65
2022-08-21T17:15:22.819Z,4.18
2022-08-21T17:17:51.324Z,2.50
2022-08-21T17:20:19.821Z,2.67
2022-08-21T17:22:47.166Z,4.70
2022-08-21T17:25:15.829Z,3.28
2022-08-21T17:27:44.253Z,4.25
2022-08-21T17:30:13.350Z,2.47
2022-08-21T17:32:42.264Z,1.80
2022-08-21T17:35:10.805Z,4.20
2022-08-21T17:37:38.248Z,3.33
2022-08-21T17:40:10.596Z,3.90
2022-08-21T17:42:37.899Z,2.33
2022-08-21T17:45:05.439Z,1.58
2022-08-21T17:47:33.066Z,3.72
2022-08-21T17:50:00.111Z,5.20
2022-08-21T17:52:27.372Z,2.08
2022-08-21T17:54:55.191Z,3.35
2022-08-21T17:57:24.048Z,2.95
2022-08-21T17:59:55.177Z,2.47
2022-08-21T18:02:25.684Z,4.53
2022-08-21T18:04:55.212Z,2.20
2022-08-21T18:07:31.778Z,5.50
2022-08-21T18:10:06.311Z,2.05
2022-08-21T18:12:34.884Z,3.80
2022-08-21T18:15:02.760Z,2.33
2022-08-21T18:17:33.194Z,3.97
2022-08-21T18:20:02.012Z,3.63
2022-08-21T18:22:29.438Z,2.55
2022-08-21T18:24:57.076Z,4.03
2022-08-21T18:27:29.067Z,4.32
2022-08-21T18:30:00.264Z,2.67
2022-08-21T18:32:31.873Z,5.63
2022-08-21T18:35:02.580Z,4.90
2022-08-21T18:37:30.314Z,5.38
2022-08-21T18:39:59.689Z,4.07
2022-08-21T18:42:29.432Z,5.72
2022-08-21T18:45:52.906Z,2.45
2022-08-21T18:48:21.381Z,2.80
2022-08-21T18:50:54.473Z,4.63
2022-08-21T18:56:15.905Z,3.13
2022-08-21T18:58:44.942Z,5.57
2022-08-21T19:01:13.660Z,4.90
2022-08-21T19:03:41.034Z,3.78
2022-08-21T19:06:12.135Z,5.40
2022-08-21T19:08:43.035Z,4.15
2022-08-21T19:11:11.143Z,3.97
2022-08-21T19:13:39.375Z,2.73
2022-08-21T19:16:08.218Z,2.37
2022-08-21T19:18:41.220Z,5.87
2022-08-21T19:21:09.674Z,8.50
2022-08-21T19:23:38.023Z,38.73
2022-08-21T19:26:12.190Z,15.77
2022-08-21T19:28:48.304Z,92.60
2022-08-21T19:31:23.784Z,100.40
2022-08-21T19:34:03.739Z,43.83
2022-08-21T19:36:32.524Z,8.47
2022-08-21T19:39:02.122Z,6.30
2022-08-21T19:41:40.768Z,4.43
2022-08-21T19:44:14.155Z,2.58
2022-08-21T19:46:44.501Z,2.17
2022-08-21T19:49:16.262Z,4.75
2022-08-21T19:51:44.399Z,4.07
2022-08-21T19:54:17.426Z,4.77
2022-08-21T19:56:46.050Z,4.20
2022-08-21T19:59:17.718Z,2.37
2022-08-21T20:01:45.600Z,3.40
2022-08-21T20:04:19.508Z,2.00
2022-08-21T20:06:48.368Z,1.47
2022-08-21T20:09:17.125Z,1.80
2022-08-21T20:11:50.452Z,3.10
2022-08-21T20:14:21.178Z,3.75
2022-08-21T20:16:52.679Z,3.57
2022-08-21T20:19:22.182Z,3.23
2022-08-21T20:21:49.675Z,5.30
2022-08-21T20:24:17.189Z,5.60
2022-08-21T20:26:49.214Z,5.63
2022-08-21T20:29:24.605Z,3.37
2022-08-21T20:32:12.230Z,5.67
2022-08-21T20:34:55.967Z,3.93
2022-08-21T20:40:14.529Z,2.53
2022-08-21T20:42:47.477Z,2.57
2022-08-21T20:45:21.514Z,2.20
2022-08-21T20:47:52.505Z,3.27
2022-08-21T20:50:24.883Z,3.27
2022-08-21T20:52:57.819Z,2.17
2022-08-21T20:58:23.040Z,3.13
2022-08-21T21:01:01.188Z,2.73
2022-08-21T21:03:37.252Z,4.17
2022-08-21T21:06:10.672Z,4.10
2022-08-21T21:11:38.307Z,4.43
2022-08-21T21:14:22.664Z,3.57
2022-08-21T21:16:55.569Z,7.47
2022-08-21T21:19:22.780Z,3.90
2022-08-21T21:21:55.657Z,3.37
2022-08-21T21:24:38.097Z,2.90
2022-08-21T21:27:18.585Z,6.43
2022-08-21T21:29:51.956Z,6.00
2022-08-21T21:32:20.575Z,3.07
2022-08-21T21:34:51.041Z,3.40
2022-08-21T21:37:25.910Z,3.67
2022-08-21T21:40:18.781Z,5.03
2022-08-21T21:43:07.452Z,6.57
2022-08-21T21:45:51.274Z,4.07
2022-08-21T21:48:42.277Z,3.60
2022-08-21T21:51:30.919Z,3.77
2022-08-21T21:54:37.132Z,1.93
2022-08-21T21:57:16.410Z,4.53
2022-08-21T22:00:01.619Z,2.43
2022-08-21T22:02:58.437Z,3.70
2022-08-21T22:06:05.806Z,5.53
2022-08-21T22:08:39.229Z,4.87
2022-08-21T22:14:13.452Z,5.00
2022-08-21T22:16:42.466Z,3.57
2022-08-21T22:19:30.751Z,4.33
2022-08-21T22:22:09.170Z,4.53
2022-08-21T22:24:44.563Z,1.97
2022-08-21T22:27:17.849Z,4.73
2022-08-21T22:29:54.259Z,2.40
2022-08-21T22:32:25.743Z,6.93
2022-08-21T22:35:21.124Z,3.27
2022-08-21T22:37:51.344Z,2.43
2022-08-21T22:40:26.468Z,2.93
2022-08-21T22:43:02.720Z,2.23
2022-08-21T22:45:33.104Z,3.03
2022-08-21T22:48:14.542Z,3.77
2022-08-21T22:51:12.836Z,2.33
2022-08-21T22:53:42.937Z,2.80
2022-08-21T22:56:25.756Z,3.97
2022-08-21T22:58:57.260Z,2.50
2022-08-21T23:01:24.292Z,3.50
2022-08-21T23:03:57.669Z,3.43
2022-08-21T23:06:46.397Z,2.97
2022-08-21T23:09:32.030Z,5.67
2022-08-21T23:12:23.974Z,3.17
2022-08-21T23:15:04.885Z,4.00
2022-08-21T23:17:49.830Z,5.57
2022-08-21T23:20:33.414Z,3.70
2022-08-21T23:23:18.953Z,4.63
2022-08-21T23:26:06.759Z,7.53
2022-08-21T23:28:54.020Z,5.13
2022-08-21T23:31:35.710Z,3.97
2022-08-21T23:34:05.730Z,4.40
2022-08-21T23:37:49.151Z,5.87
2022-08-21T23:40:23.144Z,3.37
2022-08-21T23:43:19.114Z,5.50
2022-08-21T23:45:58.826Z,5.17
2022-08-21T23:48:37.998Z,2.60
2022-08-21T23:51:13.665Z,2.83
2022-08-21T23:53:56.170Z,4.63
2022-08-21T23:56:25.925Z,3.57
2022-08-21T23:59:07.213Z,3.37
